sensor_id;sensor_type;location;lat;lon;timestamp;pressure;altitude;pressure_sealevel;temperature;humidity
54666;BME280;40566;50.006;36.180;2022-08-30T00:03:36;99694.28;;;20.03;68.03
54666;BME280;40566;50.006;36.180;2022-08-30T00:08:38;99702.25;;;20.01;68.34
54666;BME280;40566;50.006;36.180;2022-08-30T00:13:42;99703.09;;;20.02;68.18
54666;BME280;40566;50.006;36.180;2022-08-30T00:18:44;99711.19;;;19.99;68.10
54666;BME280;40566;50.006;36.180;2022-08-30T00:23:44;99714.13;;;19.94;68.23
54666;BME280;40566;50.006;36.180;2022-08-30T00:28:45;99711.63;;;19.93;68.52
54666;BME280;40566;50.006;36.180;2022-08-30T00:33:46;99721.66;;;19.86;68.67
54666;BME280;40566;50.006;36.180;2022-08-30T00:38:46;99718.22;;;19.86;68.79
54666;BME280;40566;50.006;36.180;2022-08-30T00:43:47;99721.25;;;19.79;68.57
54666;BME280;40566;50.006;36.180;2022-08-30T00:48:48;99721.25;;;19.79;68.66
54666;BME280;40566;50.006;36.180;2022-08-30T00:53:53;99706.66;;;19.75;68.65
54666;BME280;40566;50.006;36.180;2022-08-30T00:58:56;99707.16;;;19.80;68.81
54666;BME280;40566;50.006;36.180;2022-08-30T01:03:59;99708.13;;;19.79;68.35
54666;BME280;40566;50.006;36.180;2022-08-30T01:09:02;99705.44;;;19.67;68.72
54666;BME280;40566;50.006;36.180;2022-08-30T01:14:04;99698.69;;;19.62;68.95
54666;BME280;40566;50.006;36.180;2022-08-30T01:19:57;99695.25;;;19.62;68.87
54666;BME280;40566;50.006;36.180;2022-08-30T01:24:32;99699.09;;;19.56;68.88
54666;BME280;40566;50.006;36.180;2022-08-30T01:29:34;99700.25;;;19.52;68.97
54666;BME280;40566;50.006;36.180;2022-08-30T01:34:34;99716.00;;;19.52;69.04
54666;BME280;40566;50.006;36.180;2022-08-30T01:39:35;99712.72;;;19.49;69.23
54666;BME280;40566;50.006;36.180;2022-08-30T01:44:35;99711.88;;;19.48;68.91
54666;BME280;40566;50.006;36.180;2022-08-30T01:49:37;99705.81;;;19.48;69.14
54666;BME280;40566;50.006;36.180;2022-08-30T01:54:40;99698.69;;;19.50;68.69
54666;BME280;40566;50.006;36.180;2022-08-30T01:59:42;99696.47;;;19.44;69.10
54666;BME280;40566;50.006;36.180;2022-08-30T02:04:46;99710.72;;;19.39;69.11
54666;BME280;40566;50.006;36.180;2022-08-30T02:09:47;99698.34;;;19.41;68.66
54666;BME280;40566;50.006;36.180;2022-08-30T02:14:48;99705.06;;;19.46;68.74
54666;BME280;40566;50.006;36.180;2022-08-30T02:19:48;99711.25;;;19.45;68.71
54666;BME280;40566;50.006;36.180;2022-08-30T02:24:49;99715.66;;;19.44;68.67
54666;BME280;40566;50.006;36.180;2022-08-30T02:29:49;99710.84;;;19.51;68.54
54666;BME280;40566;50.006;36.180;2022-08-30T02:34:50;99702.03;;;19.52;68.78
54666;BME280;40566;50.006;36.180;2022-08-30T02:39:51;99711.59;;;19.53;68.40
54666;BME280;40566;50.006;36.180;2022-08-30T02:44:51;99717.78;;;19.52;68.75
54666;BME280;40566;50.006;36.180;2022-08-30T02:49:52;99711.81;;;19.50;68.66
54666;BME280;40566;50.006;36.180;2022-08-30T02:54:53;99717.78;;;19.52;68.48
54666;BME280;40566;50.006;36.180;2022-08-30T02:59:54;99721.97;;;19.41;68.65
54666;BME280;40566;50.006;36.180;2022-08-30T03:04:55;99722.28;;;19.50;68.98
54666;BME280;40566;50.006;36.180;2022-08-30T03:09:56;99724.09;;;19.49;68.95
54666;BME280;40566;50.006;36.180;2022-08-30T03:14:57;99730.91;;;19.52;68.80
54666;BME280;40566;50.006;36.180;2022-08-30T03:19:58;99737.06;;;19.51;68.98
54666;BME280;40566;50.006;36.180;2022-08-30T03:25:01;99742.53;;;19.48;69.21
54666;BME280;40566;50.006;36.180;2022-08-30T03:30:04;99735.59;;;19.47;69.47
54666;BME280;40566;50.006;36.180;2022-08-30T03:35:06;99738.78;;;19.52;69.38
54666;BME280;40566;50.006;36.180;2022-08-30T03:40:09;99740.81;;;19.61;69.29
54666;BME280;40566;50.006;36.180;2022-08-30T03:45:10;99736.09;;;19.66;69.03
54666;BME280;40566;50.006;36.180;2022-08-30T03:50:13;99740.34;;;19.81;68.95
54666;BME280;40566;50.006;36.180;2022-08-30T03:55:14;99753.13;;;20.00;68.43
54666;BME280;40566;50.006;36.180;2022-08-30T04:00:15;99743.88;;;20.20;68.03
54666;BME280;40566;50.006;36.180;2022-08-30T04:05:16;99750.59;;;20.37;67.70
54666;BME280;40566;50.006;36.180;2022-08-30T04:10:17;99743.16;;;20.44;67.70
54666;BME280;40566;50.006;36.180;2022-08-30T04:15:20;99756.38;;;20.55;67.64
54666;BME280;40566;50.006;36.180;2022-08-30T04:20:21;99759.66;;;20.59;67.53
54666;BME280;40566;50.006;36.180;2022-08-30T04:25:21;99749.78;;;20.63;67.39
54666;BME280;40566;50.006;36.180;2022-08-30T04:30:22;99755.78;;;20.65;67.43
54666;BME280;40566;50.006;36.180;2022-08-30T04:35:23;99754.09;;;20.64;67.61
54666;BME280;40566;50.006;36.180;2022-08-30T04:40:24;99749.69;;;20.64;67.52
54666;BME280;40566;50.006;36.180;2022-08-30T04:45:25;99765.34;;;20.66;67.58
54666;BME280;40566;50.006;36.180;2022-08-30T04:50:26;99748.81;;;20.76;67.38
54666;BME280;40566;50.006;36.180;2022-08-30T04:55:26;99747.13;;;20.88;67.16
54666;BME280;40566;50.006;36.180;2022-08-30T05:00:27;99744.34;;;21.03;67.02
54666;BME280;40566;50.006;36.180;2022-08-30T05:05:28;99740.41;;;21.21;66.75
54666;BME280;40566;50.006;36.180;2022-08-30T05:10:43;99737.91;;;21.44;66.10
54666;BME280;40566;50.006;36.180;2022-08-30T05:15:45;99736.56;;;21.62;65.47
54666;BME280;40566;50.006;36.180;2022-08-30T05:20:46;99747.66;;;21.78;65.14
54666;BME280;40566;50.006;36.180;2022-08-30T05:25:46;99747.34;;;21.94;64.49
54666;BME280;40566;50.006;36.180;2022-08-30T05:30:47;99751.31;;;22.11;63.80
54666;BME280;40566;50.006;36.180;2022-08-30T05:35:47;99748.38;;;22.27;63.68
54666;BME280;40566;50.006;36.180;2022-08-30T05:40:48;99746.13;;;22.45;62.97
54666;BME280;40566;50.006;36.180;2022-08-30T05:45:57;99741.47;;;22.60;62.47
54666;BME280;40566;50.006;36.180;2022-08-30T05:51:13;99738.34;;;22.77;61.88
54666;BME280;40566;50.006;36.180;2022-08-30T05:56:17;99739.63;;;22.94;61.26
54666;BME280;40566;50.006;36.180;2022-08-30T06:01:27;99732.34;;;23.09;60.81
54666;BME280;40566;50.006;36.180;2022-08-30T06:06:29;99741.53;;;23.26;60.33
54666;BME280;40566;50.006;36.180;2022-08-30T06:11:30;99747.47;;;23.40;60.15
54666;BME280;40566;50.006;36.180;2022-08-30T06:16:31;99731.81;;;23.59;60.09
54666;BME280;40566;50.006;36.180;2022-08-30T06:21:34;99729.13;;;23.82;59.24
54666;BME280;40566;50.006;36.180;2022-08-30T06:26:41;99736.19;;;24.02;58.74
54666;BME280;40566;50.006;36.180;2022-08-30T06:31:42;99736.31;;;24.22;58.54
54666;BME280;40566;50.006;36.180;2022-08-30T06:36:43;99744.59;;;24.38;57.97
54666;BME280;40566;50.006;36.180;2022-08-30T06:41:44;99753.91;;;24.53;57.66
54666;BME280;40566;50.006;36.180;2022-08-30T06:46:44;99750.91;;;24.68;57.31
54666;BME280;40566;50.006;36.180;2022-08-30T06:51:45;99748.78;;;24.92;56.29
54666;BME280;40566;50.006;36.180;2022-08-30T06:56:46;99744.34;;;25.12;56.00
54666;BME280;40566;50.006;36.180;2022-08-30T07:01:46;99753.91;;;25.35;54.93
54666;BME280;40566;50.006;36.180;2022-08-30T07:06:47;99744.84;;;25.66;53.71
54666;BME280;40566;50.006;36.180;2022-08-30T07:11:47;99741.22;;;25.67;53.65
54666;BME280;40566;50.006;36.180;2022-08-30T07:16:48;99736.34;;;25.72;52.86
54666;BME280;40566;50.006;36.180;2022-08-30T07:21:49;99737.88;;;25.95;52.53
54666;BME280;40566;50.006;36.180;2022-08-30T07:26:50;99744.69;;;26.17;51.32
54666;BME280;40566;50.006;36.180;2022-08-30T07:31:51;99737.41;;;26.28;51.31
54666;BME280;40566;50.006;36.180;2022-08-30T07:36:52;99736.78;;;26.44;51.06
54666;BME280;40566;50.006;36.180;2022-08-30T07:41:52;99733.09;;;26.65;50.69
54666;BME280;40566;50.006;36.180;2022-08-30T07:46:53;99734.88;;;27.02;49.27
54666;BME280;40566;50.006;36.180;2022-08-30T07:51:55;99721.63;;;27.20;48.62
54666;BME280;40566;50.006;36.180;2022-08-30T07:56:55;99724.94;;;27.04;48.46
54666;BME280;40566;50.006;36.180;2022-08-30T08:01:56;99736.16;;;26.98;49.06
54666;BME280;40566;50.006;36.180;2022-08-30T08:06:57;99724.25;;;27.29;48.29
54666;BME280;40566;50.006;36.180;2022-08-30T08:11:57;99730.84;;;27.25;47.92
54666;BME280;40566;50.006;36.180;2022-08-30T08:16:59;99726.28;;;27.36;47.97
54666;BME280;40566;50.006;36.180;2022-08-30T08:21:59;99727.88;;;27.46;47.18
54666;BME280;40566;50.006;36.180;2022-08-30T08:27:00;99737.19;;;27.50;47.00
54666;BME280;40566;50.006;36.180;2022-08-30T08:32:01;99727.56;;;27.67;46.10
54666;BME280;40566;50.006;36.180;2022-08-30T08:37:02;99725.78;;;27.76;46.03
54666;BME280;40566;50.006;36.180;2022-08-30T08:42:16;99718.34;;;27.80;46.09
54666;BME280;40566;50.006;36.180;2022-08-30T08:48:11;99718.28;;;27.89;45.72
54666;BME280;40566;50.006;36.180;2022-08-30T08:52:50;99708.91;;;28.03;45.35
54666;BME280;40566;50.006;36.180;2022-08-30T08:58:23;99707.00;;;28.22;44.62
54666;BME280;40566;50.006;36.180;2022-08-30T09:03:27;99692.13;;;28.37;44.38
54666;BME280;40566;50.006;36.180;2022-08-30T09:08:28;99705.16;;;28.48;44.19
54666;BME280;40566;50.006;36.180;2022-08-30T09:13:31;99698.75;;;28.59;44.24
54666;BME280;40566;50.006;36.180;2022-08-30T09:18:43;99690.47;;;28.71;43.91
54666;BME280;40566;50.006;36.180;2022-08-30T09:23:53;99683.53;;;28.78;43.42
54666;BME280;40566;50.006;36.180;2022-08-30T09:28:55;99702.03;;;28.96;43.26
54666;BME280;40566;50.006;36.180;2022-08-30T09:39:04;99683.31;;;29.22;43.06
54666;BME280;40566;50.006;36.180;2022-08-30T09:44:14;99680.16;;;29.51;42.44
54666;BME280;40566;50.006;36.180;2022-08-30T10:00:17;99685.16;;;29.79;41.30
54666;BME280;40566;50.006;36.180;2022-08-30T10:05:34;99678.50;;;29.75;41.59
54666;BME280;40566;50.006;36.180;2022-08-30T10:11:00;99674.81;;;29.76;41.24
54666;BME280;40566;50.006;36.180;2022-08-30T10:16:23;99679.00;;;29.78;40.94
54666;BME280;40566;50.006;36.180;2022-08-30T10:21:39;99675.00;;;29.82;41.16
54666;BME280;40566;50.006;36.180;2022-08-30T10:26:51;99662.81;;;29.96;40.97
54666;BME280;40566;50.006;36.180;2022-08-30T10:32:09;99659.25;;;30.12;40.89
54666;BME280;40566;50.006;36.180;2022-08-30T10:37:14;99659.78;;;30.08;40.78
54666;BME280;40566;50.006;36.180;2022-08-30T10:42:26;99655.75;;;30.03;40.91
54666;BME280;40566;50.006;36.180;2022-08-30T10:53:38;99644.75;;;30.54;39.87
54666;BME280;40566;50.006;36.180;2022-08-30T10:58:41;99654.34;;;30.72;39.26
54666;BME280;40566;50.006;36.180;2022-08-30T11:14:49;99649.44;;;30.04;40.33
54666;BME280;40566;50.006;36.180;2022-08-30T11:19:52;99646.44;;;30.08;40.15
54666;BME280;40566;50.006;36.180;2022-08-30T11:25:15;99633.75;;;30.80;39.12
54666;BME280;40566;50.006;36.180;2022-08-30T11:35:40;99632.03;;;30.64;38.99
54666;BME280;40566;50.006;36.180;2022-08-30T11:40:49;99625.22;;;30.14;39.69
54666;BME280;40566;50.006;36.180;2022-08-30T11:45:50;99630.63;;;30.46;39.09
54666;BME280;40566;50.006;36.180;2022-08-30T12:16:56;99611.44;;;30.02;40.06
54666;BME280;40566;50.006;36.180;2022-08-30T12:22:17;99605.31;;;29.69;40.42
54666;BME280;40566;50.006;36.180;2022-08-30T12:32:22;99606.16;;;29.70;39.92
54666;BME280;40566;50.006;36.180;2022-08-30T12:37:34;99594.16;;;29.65;40.07
54666;BME280;40566;50.006;36.180;2022-08-30T12:42:38;99593.84;;;29.52;40.73
54666;BME280;40566;50.006;36.180;2022-08-30T12:47:46;99600.22;;;29.35;40.60
54666;BME280;40566;50.006;36.180;2022-08-30T12:53:03;99599.22;;;29.19;41.19
54666;BME280;40566;50.006;36.180;2022-08-30T12:58:05;99601.22;;;29.25;41.06
54666;BME280;40566;50.006;36.180;2022-08-30T13:03:36;99587.66;;;29.60;40.39
54666;BME280;40566;50.006;36.180;2022-08-30T13:13:49;99575.50;;;29.74;40.10
54666;BME280;40566;50.006;36.180;2022-08-30T13:18:55;99576.00;;;29.77;40.21
54666;BME280;40566;50.006;36.180;2022-08-30T13:24:15;99575.66;;;29.80;39.79
54666;BME280;40566;50.006;36.180;2022-08-30T13:29:20;99563.81;;;29.83;39.78
54666;BME280;40566;50.006;36.180;2022-08-30T13:34:23;99563.31;;;29.79;39.74
54666;BME280;40566;50.006;36.180;2022-08-30T13:39:24;99553.47;;;29.80;39.67
54666;BME280;40566;50.006;36.180;2022-08-30T13:44:25;99561.31;;;29.81;39.63
54666;BME280;40566;50.006;36.180;2022-08-30T13:49:29;99550.81;;;29.80;39.85
54666;BME280;40566;50.006;36.180;2022-08-30T13:54:30;99556.19;;;29.72;39.39
54666;BME280;40566;50.006;36.180;2022-08-30T13:59:30;99553.00;;;29.68;40.03
54666;BME280;40566;50.006;36.180;2022-08-30T14:04:34;99548.19;;;29.63;40.00
54666;BME280;40566;50.006;36.180;2022-08-30T14:09:35;99547.88;;;29.58;40.02
54666;BME280;40566;50.006;36.180;2022-08-30T14:14:35;99541.72;;;29.50;40.10
54666;BME280;40566;50.006;36.180;2022-08-30T14:19:36;99536.25;;;29.43;40.14
54666;BME280;40566;50.006;36.180;2022-08-30T14:24:36;99534.25;;;29.37;40.05
54666;BME280;40566;50.006;36.180;2022-08-30T14:29:37;99532.28;;;29.31;40.29
54666;BME280;40566;50.006;36.180;2022-08-30T14:34:38;99533.28;;;29.21;40.70
54666;BME280;40566;50.006;36.180;2022-08-30T14:39:39;99530.13;;;29.18;40.24
54666;BME280;40566;50.006;36.180;2022-08-30T14:44:39;99535.41;;;29.10;40.34
54666;BME280;40566;50.006;36.180;2022-08-30T14:49:40;99528.25;;;29.02;40.41
54666;BME280;40566;50.006;36.180;2022-08-30T14:54:41;99522.28;;;28.92;40.77
54666;BME280;40566;50.006;36.180;2022-08-30T14:59:42;99525.63;;;28.85;40.40
54666;BME280;40566;50.006;36.180;2022-08-30T15:04:43;99513.94;;;28.78;40.75
54666;BME280;40566;50.006;36.180;2022-08-30T15:09:44;99515.13;;;28.67;40.74
54666;BME280;40566;50.006;36.180;2022-08-30T15:14:44;99504.63;;;28.58;40.60
54666;BME280;40566;50.006;36.180;2022-08-30T15:19:45;99497.59;;;28.48;40.82
54666;BME280;40566;50.006;36.180;2022-08-30T15:24:46;99499.59;;;28.38;41.24
54666;BME280;40566;50.006;36.180;2022-08-30T15:29:46;99502.22;;;28.30;41.51
54666;BME280;40566;50.006;36.180;2022-08-30T15:34:47;99508.00;;;28.17;41.74
54666;BME280;40566;50.006;36.180;2022-08-30T15:39:48;99500.00;;;28.09;41.79
54666;BME280;40566;50.006;36.180;2022-08-30T15:44:53;99497.47;;;27.99;41.79
54666;BME280;40566;50.006;36.180;2022-08-30T15:49:56;99504.06;;;27.87;42.33
54666;BME280;40566;50.006;36.180;2022-08-30T15:54:57;99515.13;;;27.74;42.69
54666;BME280;40566;50.006;36.180;2022-08-30T15:59:58;99518.53;;;27.58;43.07
54666;BME280;40566;50.006;36.180;2022-08-30T16:04:59;99520.81;;;27.45;43.35
54666;BME280;40566;50.006;36.180;2022-08-30T16:10:01;99525.56;;;27.33;43.88
54666;BME280;40566;50.006;36.180;2022-08-30T16:15:01;99526.22;;;27.17;44.73
54666;BME280;40566;50.006;36.180;2022-08-30T16:20:03;99531.13;;;27.04;44.97
54666;BME280;40566;50.006;36.180;2022-08-30T16:25:04;99529.66;;;26.91;45.26
54666;BME280;40566;50.006;36.180;2022-08-30T16:30:06;99524.91;;;26.77;45.75
54666;BME280;40566;50.006;36.180;2022-08-30T16:35:07;99530.75;;;26.63;46.13
54666;BME280;40566;50.006;36.180;2022-08-30T16:40:08;99537.94;;;26.52;46.88
54666;BME280;40566;50.006;36.180;2022-08-30T16:45:10;99544.72;;;26.37;47.46
54666;BME280;40566;50.006;36.180;2022-08-30T16:50:12;99551.22;;;26.25;47.81
54666;BME280;40566;50.006;36.180;2022-08-30T16:55:16;99546.81;;;26.16;47.32
54666;BME280;40566;50.006;36.180;2022-08-30T17:00:17;99551.56;;;26.12;47.55
54666;BME280;40566;50.006;36.180;2022-08-30T17:05:18;99554.44;;;26.01;47.97
54666;BME280;40566;50.006;36.180;2022-08-30T17:10:20;99549.16;;;25.91;48.50
54666;BME280;40566;50.006;36.180;2022-08-30T17:15:22;99548.03;;;25.84;48.59
54666;BME280;40566;50.006;36.180;2022-08-30T17:20:23;99548.31;;;25.81;48.41
54666;BME280;40566;50.006;36.180;2022-08-30T17:25:25;99543.69;;;25.83;48.55
54666;BME280;40566;50.006;36.180;2022-08-30T17:30:26;99563.13;;;25.83;48.40
54666;BME280;40566;50.006;36.180;2022-08-30T17:35:27;99559.78;;;25.81;48.52
54666;BME280;40566;50.006;36.180;2022-08-30T17:40:27;99556.44;;;25.79;48.96
54666;BME280;40566;50.006;36.180;2022-08-30T17:45:28;99560.78;;;25.70;49.23
54666;BME280;40566;50.006;36.180;2022-08-30T17:50:29;99555.38;;;25.62;49.56
54666;BME280;40566;50.006;36.180;2022-08-30T17:55:29;99555.38;;;25.52;50.02
54666;BME280;40566;50.006;36.180;2022-08-30T18:00:30;99559.06;;;25.42;50.56
54666;BME280;40566;50.006;36.180;2022-08-30T18:05:31;99558.50;;;25.28;51.42
54666;BME280;40566;50.006;36.180;2022-08-30T18:10:31;99556.09;;;25.16;51.95
54666;BME280;40566;50.006;36.180;2022-08-30T18:15:32;99552.63;;;25.05;52.38
54666;BME280;40566;50.006;36.180;2022-08-30T18:20:33;99550.00;;;24.96;52.97
54666;BME280;40566;50.006;36.180;2022-08-30T18:25:33;99557.41;;;24.82;53.38
54666;BME280;40566;50.006;36.180;2022-08-30T18:30:34;99554.75;;;24.72;53.70
54666;BME280;40566;50.006;36.180;2022-08-30T18:35:36;99544.44;;;24.60;54.20
54666;BME280;40566;50.006;36.180;2022-08-30T18:40:38;99554.97;;;24.50;54.60
54666;BME280;40566;50.006;36.180;2022-08-30T18:45:43;99549.50;;;24.42;54.70
54666;BME280;40566;50.006;36.180;2022-08-30T18:50:45;99560.06;;;24.32;54.96
54666;BME280;40566;50.006;36.180;2022-08-30T18:55:45;99570.50;;;24.24;54.96
54666;BME280;40566;50.006;36.180;2022-08-30T19:00:47;99570.03;;;24.19;55.05
54666;BME280;40566;50.006;36.180;2022-08-30T19:05:48;99567.72;;;24.25;55.24
54666;BME280;40566;50.006;36.180;2022-08-30T19:10:49;99565.03;;;24.15;55.43
54666;BME280;40566;50.006;36.180;2022-08-30T19:15:49;99573.22;;;24.12;55.79
54666;BME280;40566;50.006;36.180;2022-08-30T19:20:51;99571.25;;;24.05;55.89
54666;BME280;40566;50.006;36.180;2022-08-30T19:25:52;99571.81;;;24.08;56.62
54666;BME280;40566;50.006;36.180;2022-08-30T19:30:53;99574.75;;;24.05;56.45
54666;BME280;40566;50.006;36.180;2022-08-30T19:35:54;99581.00;;;24.04;56.76
54666;BME280;40566;50.006;36.180;2022-08-30T19:40:58;99576.13;;;24.00;57.08
54666;BME280;40566;50.006;36.180;2022-08-30T19:45:59;99586.09;;;23.96;57.04
54666;BME280;40566;50.006;36.180;2022-08-30T19:51:07;99582.75;;;23.94;57.16
54666;BME280;40566;50.006;36.180;2022-08-30T19:56:08;99594.69;;;23.88;57.30
54666;BME280;40566;50.006;36.180;2022-08-30T20:01:09;99599.53;;;23.83;57.98
54666;BME280;40566;50.006;36.180;2022-08-30T20:06:11;99602.44;;;23.80;58.17
54666;BME280;40566;50.006;36.180;2022-08-30T20:11:14;99600.00;;;23.77;58.31
54666;BME280;40566;50.006;36.180;2022-08-30T20:16:16;99594.44;;;23.70;58.73
54666;BME280;40566;50.006;36.180;2022-08-30T20:21:16;99609.13;;;23.63;59.00
54666;BME280;40566;50.006;36.180;2022-08-30T20:26:17;99604.09;;;23.60;59.14
54666;BME280;40566;50.006;36.180;2022-08-30T20:31:17;99615.19;;;23.54;59.45
54666;BME280;40566;50.006;36.180;2022-08-30T20:36:18;99619.88;;;23.50;59.58
54666;BME280;40566;50.006;36.180;2022-08-30T20:41:19;99612.31;;;23.46;59.96
54666;BME280;40566;50.006;36.180;2022-08-30T20:46:20;99621.75;;;23.39;60.34
54666;BME280;40566;50.006;36.180;2022-08-30T20:51:21;99612.66;;;23.31;60.71
54666;BME280;40566;50.006;36.180;2022-08-30T20:56:22;99622.19;;;23.23;60.92
54666;BME280;40566;50.006;36.180;2022-08-30T21:01:24;99634.78;;;23.19;61.12
54666;BME280;40566;50.006;36.180;2022-08-30T21:06:26;99631.69;;;23.14;61.17
54666;BME280;40566;50.006;36.180;2022-08-30T21:11:27;99630.84;;;23.13;61.05
54666;BME280;40566;50.006;36.180;2022-08-30T21:16:29;99625.97;;;23.09;61.32
54666;BME280;40566;50.006;36.180;2022-08-30T21:21:30;99620.91;;;22.94;61.71
54666;BME280;40566;50.006;36.180;2022-08-30T21:26:32;99625.47;;;22.92;61.71
54666;BME280;40566;50.006;36.180;2022-08-30T21:31:34;99616.41;;;22.85;61.94
54666;BME280;40566;50.006;36.180;2022-08-30T21:36:37;99621.59;;;22.75;62.25
54666;BME280;40566;50.006;36.180;2022-08-30T21:41:48;99616.56;;;22.72;62.42
54666;BME280;40566;50.006;36.180;2022-08-30T21:46:51;99634.41;;;22.69;62.43
54666;BME280;40566;50.006;36.180;2022-08-30T21:51:52;99635.06;;;22.61;62.39
54666;BME280;40566;50.006;36.180;2022-08-30T21:56:57;99623.19;;;22.55;62.29
54666;BME280;40566;50.006;36.180;2022-08-30T22:02:00;99629.91;;;22.48;62.46
54666;BME280;40566;50.006;36.180;2022-08-30T22:07:01;99624.16;;;22.43;62.29
54666;BME280;40566;50.006;36.180;2022-08-30T22:12:06;99622.72;;;22.39;62.50
54666;BME280;40566;50.006;36.180;2022-08-30T22:17:06;99631.97;;;22.33;62.61
54666;BME280;40566;50.006;36.180;2022-08-30T22:22:07;99631.81;;;22.35;62.44
54666;BME280;40566;50.006;36.180;2022-08-30T22:27:07;99632.09;;;22.32;62.26
54666;BME280;40566;50.006;36.180;2022-08-30T22:32:08;99627.50;;;22.23;62.38
54666;BME280;40566;50.006;36.180;2022-08-30T22:37:09;99637.81;;;22.14;62.70
54666;BME280;40566;50.006;36.180;2022-08-30T22:42:09;99634.66;;;22.09;62.86
54666;BME280;40566;50.006;36.180;2022-08-30T22:47:10;99634.22;;;22.04;62.83
54666;BME280;40566;50.006;36.180;2022-08-30T22:52:11;99632.28;;;21.95;63.04
54666;BME280;40566;50.006;36.180;2022-08-30T22:57:13;99616.59;;;21.82;63.31
54666;BME280;40566;50.006;36.180;2022-08-30T23:02:15;99617.06;;;21.87;63.29
54666;BME280;40566;50.006;36.180;2022-08-30T23:07:15;99618.75;;;21.88;63.17
54666;BME280;40566;50.006;36.180;2022-08-30T23:12:16;99615.50;;;21.85;63.19
54666;BME280;40566;50.006;36.180;2022-08-30T23:17:16;99613.72;;;21.85;62.82
54666;BME280;40566;50.006;36.180;2022-08-30T23:22:17;99611.91;;;21.86;62.99
54666;BME280;40566;50.006;36.180;2022-08-30T23:27:18;99612.38;;;21.79;62.94
54666;BME280;40566;50.006;36.180;2022-08-30T23:32:37;99614.75;;;21.71;63.27
54666;BME280;40566;50.006;36.180;2022-08-30T23:38:02;99604.59;;;21.67;63.27
54666;BME280;40566;50.006;36.180;2022-08-30T23:43:22;99607.69;;;21.61;63.34
54666;BME280;40566;50.006;36.180;2022-08-30T23:48:41;99603.00;;;21.53;63.48
54666;BME280;40566;50.006;36.180;2022-08-30T23:54:02;99600.50;;;21.51;63.35
54666;BME280;40566;50.006;36.180;2022-08-30T23:59:22;99597.50;;;21.45;63.65
